createdAt,value
2023-05-11T00:01:30.008Z,10.93
2023-05-11T00:03:57.839Z,9.67
2023-05-11T00:06:25.817Z,14.23
2023-05-11T00:08:53.608Z,9.17
2023-05-11T00:11:21.427Z,9.50
2023-05-11T00:13:49.146Z,10.10
2023-05-11T00:16:17.130Z,10.20
2023-05-11T00:18:46.474Z,9.60
2023-05-11T00:21:14.244Z,9.93
2023-05-11T00:23:41.948Z,11.40
2023-05-11T00:26:09.729Z,9.83
2023-05-11T00:28:37.465Z,10.70
2023-05-11T00:31:05.260Z,11.43
2023-05-11T00:33:33.098Z,10.60
2023-05-11T00:36:02.155Z,11.57
2023-05-11T00:38:29.866Z,8.27
2023-05-11T00:40:58.275Z,8.87
2023-05-11T00:43:26.021Z,10.27
2023-05-11T00:45:54.078Z,10.47
2023-05-11T00:48:22.351Z,10.07
2023-05-11T00:50:50.951Z,8.97
2023-05-11T00:53:20.093Z,9.47
2023-05-11T00:55:47.990Z,10.47
2023-05-11T00:58:16.505Z,9.90
2023-05-11T01:00:44.385Z,8.33
2023-05-11T01:03:13.155Z,13.53
2023-05-11T01:05:45.460Z,9.17
2023-05-11T01:08:18.967Z,9.60
2023-05-11T01:10:55.605Z,10.27
2023-05-11T01:13:29.044Z,14.47
2023-05-11T01:15:57.138Z,9.70
2023-05-11T01:18:30.013Z,10.67
2023-05-11T01:21:01.303Z,10.00
2023-05-11T01:24:07.984Z,10.00
2023-05-11T01:26:50.168Z,10.50
2023-05-11T01:29:51.241Z,8.90
2023-05-11T01:32:24.498Z,14.40
2023-05-11T01:34:59.691Z,11.57
2023-05-11T01:37:28.822Z,12.20
2023-05-11T01:40:00.753Z,9.30
2023-05-11T01:42:33.469Z,9.23
2023-05-11T01:45:02.632Z,9.10
2023-05-11T01:47:33.002Z,10.27
2023-05-11T01:50:03.690Z,11.07
2023-05-11T01:52:33.463Z,9.33
2023-05-11T01:55:03.351Z,12.67
2023-05-11T01:57:32.593Z,10.77
2023-05-11T02:00:01.615Z,10.80
2023-05-11T02:02:32.305Z,11.10
2023-05-11T02:05:01.677Z,10.33
2023-05-11T02:07:30.905Z,11.60
2023-05-11T02:10:00.424Z,14.53
2023-05-11T02:12:29.541Z,11.03
2023-05-11T02:14:58.215Z,10.47
2023-05-11T02:17:26.768Z,10.70
2023-05-11T02:19:57.281Z,11.27
2023-05-11T02:22:26.478Z,11.37
2023-05-11T02:24:54.237Z,17.17
2023-05-11T02:27:22.058Z,12.00
2023-05-11T02:29:49.836Z,9.90
2023-05-11T02:32:21.066Z,10.30
2023-05-11T02:34:55.409Z,9.33
2023-05-11T02:37:26.340Z,11.27
2023-05-11T02:39:58.838Z,11.60
2023-05-11T02:42:28.639Z,10.10
2023-05-11T02:44:59.703Z,11.87
2023-05-11T02:47:31.192Z,12.67
2023-05-11T02:50:02.596Z,11.13
2023-05-11T02:52:34.101Z,9.83
2023-05-11T02:55:03.203Z,11.13
2023-05-11T02:57:31.135Z,9.17
2023-05-11T02:59:59.484Z,10.80
2023-05-11T03:02:27.586Z,10.87
2023-05-11T03:04:55.529Z,9.67
2023-05-11T03:07:23.351Z,11.63
2023-05-11T03:09:52.558Z,11.93
2023-05-11T03:12:21.337Z,11.70
2023-05-11T03:14:49.730Z,11.40
2023-05-11T03:17:18.998Z,10.97
2023-05-11T03:19:46.951Z,13.17
2023-05-11T03:22:15.940Z,12.30
2023-05-11T03:24:44.351Z,11.87
2023-05-11T03:27:13.937Z,12.20
2023-05-11T03:29:45.193Z,12.87
2023-05-11T03:32:13.170Z,14.23
2023-05-11T03:34:41.046Z,12.93
2023-05-11T03:37:11.834Z,9.77
2023-05-11T03:39:43.636Z,13.13
2023-05-11T03:42:14.749Z,11.80
2023-05-11T03:44:44.224Z,11.53
2023-05-11T03:47:13.595Z,11.40
2023-05-11T03:49:42.155Z,11.40
2023-05-11T03:52:10.449Z,13.37
2023-05-11T03:54:38.622Z,11.70
2023-05-11T03:57:06.374Z,11.23
2023-05-11T03:59:35.423Z,13.77
2023-05-11T04:02:04.162Z,13.90
2023-05-11T04:04:32.527Z,14.23
2023-05-11T04:07:00.699Z,11.87
2023-05-11T04:09:28.390Z,11.00
2023-05-11T04:11:56.105Z,12.80
2023-05-11T04:14:23.790Z,16.27
2023-05-11T04:16:52.942Z,13.07
2023-05-11T04:19:20.704Z,12.30
2023-05-11T04:21:48.415Z,12.07
2023-05-11T04:24:16.108Z,11.80
2023-05-11T04:26:43.786Z,11.13
2023-05-11T04:29:11.579Z,13.00
2023-05-11T04:31:39.289Z,12.33
2023-05-11T04:34:08.858Z,12.60
2023-05-11T04:36:36.632Z,11.87
2023-05-11T04:39:06.650Z,10.30
2023-05-11T04:41:35.494Z,13.90
2023-05-11T04:44:03.194Z,14.80
2023-05-11T04:46:30.945Z,14.70
2023-05-11T04:48:58.661Z,11.27
2023-05-11T04:51:27.731Z,11.47
2023-05-11T04:53:55.423Z,14.20
2023-05-11T04:56:23.160Z,11.37
2023-05-11T04:58:50.968Z,15.13
2023-05-11T05:01:18.759Z,13.80
2023-05-11T05:03:49.934Z,10.70
2023-05-11T05:06:17.730Z,15.83
2023-05-11T05:08:46.838Z,13.82
2023-05-11T05:11:14.739Z,12.90
2023-05-11T05:13:42.472Z,14.43
2023-05-11T05:16:10.374Z,14.00
2023-05-11T05:18:38.269Z,12.40
2023-05-11T05:21:06.345Z,12.40
2023-05-11T05:23:34.080Z,18.13
2023-05-11T05:26:03.206Z,17.00
2023-05-11T05:28:30.898Z,13.70
2023-05-11T05:30:59.405Z,14.60
2023-05-11T05:33:27.261Z,14.00
2023-05-11T05:35:55.032Z,15.93
2023-05-11T05:38:22.729Z,13.00
2023-05-11T05:40:50.787Z,15.23
2023-05-11T05:43:19.847Z,15.60
2023-05-11T05:45:47.572Z,15.27
2023-05-11T05:48:15.271Z,15.27
2023-05-11T05:50:43.049Z,16.27
2023-05-11T05:53:11.125Z,18.53
2023-05-11T05:55:38.827Z,17.13
2023-05-11T05:58:06.569Z,16.73
2023-05-11T06:00:36.013Z,13.90
2023-05-11T06:03:03.892Z,15.30
2023-05-11T06:05:31.764Z,13.83
2023-05-11T06:08:09.744Z,14.33
2023-05-11T06:10:38.758Z,15.20
2023-05-11T06:13:06.944Z,12.80
2023-05-11T06:15:36.110Z,14.87
2023-05-11T06:18:03.921Z,14.10
2023-05-11T06:20:33.083Z,15.17
2023-05-11T06:23:00.802Z,13.00
2023-05-11T06:25:28.631Z,13.50
2023-05-11T06:27:56.464Z,13.93
2023-05-11T06:30:24.225Z,15.23
2023-05-11T06:32:53.363Z,13.30
2023-05-11T06:35:21.553Z,13.10
2023-05-11T06:37:49.526Z,12.20
2023-05-11T06:40:17.425Z,14.00
2023-05-11T06:42:45.618Z,15.95
2023-05-11T06:45:13.412Z,12.63
2023-05-11T06:47:41.628Z,13.77
2023-05-11T06:50:11.456Z,14.13
2023-05-11T06:52:39.214Z,14.40
2023-05-11T06:55:08.106Z,13.70
2023-05-11T06:57:35.988Z,12.60
2023-05-11T07:00:03.963Z,13.90
2023-05-11T07:02:31.837Z,13.07
2023-05-11T07:04:59.731Z,12.83
2023-05-11T07:07:28.874Z,13.43
2023-05-11T07:09:56.743Z,16.50
2023-05-11T07:12:24.866Z,10.83
2023-05-11T07:14:52.611Z,12.23
2023-05-11T07:17:20.597Z,14.70
2023-05-11T07:19:48.313Z,12.87
2023-05-11T07:22:16.180Z,12.70
2023-05-11T07:24:45.347Z,12.33
2023-05-11T07:27:13.168Z,14.47
2023-05-11T07:29:40.905Z,13.67
2023-05-11T07:32:08.619Z,12.30
2023-05-11T07:34:36.497Z,13.50
2023-05-11T07:37:04.396Z,11.53
2023-05-11T07:39:32.084Z,14.03
2023-05-11T07:42:01.178Z,11.40
2023-05-11T07:44:28.912Z,12.37
2023-05-11T07:46:56.633Z,13.40
2023-05-11T07:49:31.498Z,12.13
2023-05-11T07:52:07.549Z,9.63
2023-05-11T07:54:35.314Z,10.67
2023-05-11T07:57:05.243Z,10.03
2023-05-11T07:59:33.302Z,9.13
2023-05-11T08:02:01.168Z,8.60
2023-05-11T08:04:30.253Z,9.87
2023-05-11T08:06:58.322Z,10.10
2023-05-11T08:09:26.092Z,10.20
2023-05-11T08:11:56.295Z,8.67
2023-05-11T08:14:26.177Z,9.67
2023-05-11T08:16:53.913Z,8.87
2023-05-11T08:19:21.652Z,9.70
2023-05-11T08:21:49.393Z,9.67
2023-05-11T08:24:17.116Z,10.23
2023-05-11T08:26:45.073Z,10.40
2023-05-11T08:29:13.215Z,10.97
2023-05-11T08:31:42.275Z,10.00
2023-05-11T08:36:41.756Z,9.50
2023-05-11T08:39:09.603Z,9.37
2023-05-11T08:41:37.556Z,10.87
2023-05-11T08:44:05.796Z,9.07
2023-05-11T08:46:37.170Z,8.10
2023-05-11T08:49:07.865Z,8.13
2023-05-11T08:51:36.358Z,9.43
2023-05-11T08:54:04.388Z,7.83
2023-05-11T08:56:32.934Z,8.07
2023-05-11T08:59:01.715Z,6.60
2023-05-11T09:01:30.234Z,6.63
2023-05-11T09:03:58.266Z,7.30
2023-05-11T09:06:28.157Z,7.60
2023-05-11T09:08:56.326Z,6.30
2023-05-11T09:11:25.072Z,7.20
2023-05-11T09:13:53.163Z,7.57
2023-05-11T09:16:32.895Z,7.83
2023-05-11T09:19:05.350Z,7.47
2023-05-11T09:21:34.637Z,8.17
2023-05-11T09:24:04.108Z,7.00
2023-05-11T09:26:34.764Z,8.60
2023-05-11T09:29:04.147Z,6.80
2023-05-11T09:31:40.124Z,7.03
2023-05-11T09:34:15.741Z,6.93
2023-05-11T09:36:46.266Z,7.67
2023-05-11T09:39:16.488Z,8.50
2023-05-11T09:41:45.374Z,9.30
2023-05-11T09:44:14.736Z,8.10
2023-05-11T09:46:43.485Z,7.20
2023-05-11T09:49:12.460Z,7.07
2023-05-11T09:51:41.720Z,8.45
2023-05-11T09:54:21.223Z,6.87
2023-05-11T09:56:50.732Z,7.27
2023-05-11T09:59:37.270Z,6.40
2023-05-11T10:02:21.485Z,6.67
2023-05-11T10:04:50.302Z,7.40
2023-05-11T10:07:29.405Z,6.90
2023-05-11T10:10:00.294Z,7.60
2023-05-11T10:12:30.165Z,7.17
2023-05-11T10:15:02.980Z,7.37
2023-05-11T10:17:31.255Z,7.87
2023-05-11T10:20:00.257Z,7.63
2023-05-11T10:22:30.316Z,7.80
2023-05-11T10:25:00.439Z,7.90
2023-05-11T10:27:28.671Z,8.50
2023-05-11T10:29:59.122Z,7.53
2023-05-11T10:32:26.890Z,9.13
2023-05-11T10:34:55.434Z,9.53
2023-05-11T10:37:24.236Z,9.30
2023-05-11T10:39:52.873Z,11.43
2023-05-11T10:42:51.629Z,12.13
2023-05-11T10:45:24.772Z,14.90
2023-05-11T10:48:15.387Z,11.80
2023-05-11T10:50:57.672Z,12.40
2023-05-11T10:53:49.160Z,10.70
2023-05-11T10:56:35.403Z,12.00
2023-05-11T10:59:22.680Z,12.50
2023-05-11T11:01:52.174Z,11.83
2023-05-11T11:04:20.498Z,13.33
2023-05-11T11:06:48.412Z,13.23
2023-05-11T11:09:17.552Z,13.50
2023-05-11T11:11:46.881Z,15.23
2023-05-11T11:14:17.262Z,17.20
2023-05-11T11:17:24.390Z,16.20
2023-05-11T11:19:52.366Z,18.93
2023-05-11T11:22:46.779Z,15.67
2023-05-11T11:25:16.317Z,17.23
2023-05-11T11:27:58.818Z,16.03
2023-05-11T11:30:30.486Z,16.57
2023-05-11T11:33:31.685Z,19.00
2023-05-11T11:35:59.440Z,15.73
2023-05-11T11:38:29.348Z,17.93
2023-05-11T11:40:57.474Z,16.60
2023-05-11T11:43:26.744Z,17.47
2023-05-11T11:45:56.666Z,17.23
2023-05-11T11:48:30.887Z,16.57
2023-05-11T11:51:04.435Z,17.50
2023-05-11T11:54:08.535Z,18.90
2023-05-11T11:56:46.411Z,16.47
2023-05-11T11:59:15.413Z,17.60
2023-05-11T12:01:46.317Z,19.80
2023-05-11T12:04:27.423Z,18.70
2023-05-11T12:06:58.930Z,20.00
2023-05-11T12:09:27.923Z,18.87
2023-05-11T12:11:56.687Z,17.70
2023-05-11T12:14:25.005Z,19.80
2023-05-11T12:17:04.789Z,18.33
2023-05-11T12:19:32.555Z,18.40
2023-05-11T12:22:00.301Z,17.87
2023-05-11T12:24:28.150Z,20.00
2023-05-11T12:26:59.173Z,20.67
2023-05-11T12:29:27.035Z,22.53
2023-05-11T12:31:55.861Z,23.30
2023-05-11T12:34:24.996Z,20.73
2023-05-11T12:36:54.328Z,24.50
2023-05-11T12:39:23.521Z,19.83
2023-05-11T12:41:52.725Z,19.50
2023-05-11T12:44:22.220Z,20.03
2023-05-11T12:46:50.751Z,19.67
2023-05-11T12:49:24.658Z,21.53
2023-05-11T12:52:02.725Z,19.57
2023-05-11T12:54:32.595Z,22.73
2023-05-11T12:57:00.985Z,20.57
2023-05-11T12:59:37.473Z,16.70
2023-05-11T13:02:09.653Z,20.00
2023-05-11T13:04:37.890Z,18.80
2023-05-11T13:07:07.399Z,17.70
2023-05-11T13:09:35.225Z,19.03
2023-05-11T13:12:18.121Z,16.50
2023-05-11T13:14:47.713Z,17.43
2023-05-11T13:17:30.400Z,17.23
2023-05-11T13:19:58.525Z,18.93
2023-05-11T13:22:27.663Z,18.07
2023-05-11T13:25:03.340Z,16.50
2023-05-11T13:27:31.112Z,18.87
2023-05-11T13:29:58.826Z,21.37
2023-05-11T13:32:26.562Z,20.40
2023-05-11T13:34:54.346Z,16.60
2023-05-11T13:37:22.178Z,17.40
2023-05-11T13:39:51.254Z,18.87
2023-05-11T13:42:19.083Z,17.97
2023-05-11T13:44:46.824Z,17.73
2023-05-11T13:47:14.653Z,19.07
2023-05-11T13:49:43.157Z,20.90
2023-05-11T13:52:11.008Z,17.10
2023-05-11T13:54:38.872Z,17.50
2023-05-11T13:57:08.381Z,17.87
2023-05-11T13:59:36.116Z,19.43
2023-05-11T14:02:04.030Z,20.03
2023-05-11T14:04:32.158Z,21.83
2023-05-11T14:06:59.927Z,22.67
2023-05-11T14:09:27.716Z,19.97
2023-05-11T14:11:55.437Z,17.67
2023-05-11T14:14:24.501Z,19.80
2023-05-11T14:16:52.269Z,18.50
2023-05-11T14:19:20.006Z,18.07
2023-05-11T14:21:48.563Z,17.73
2023-05-11T14:24:16.341Z,16.67
2023-05-11T14:26:44.160Z,18.20
2023-05-11T14:29:11.869Z,18.30
2023-05-11T14:31:41.512Z,21.40
2023-05-11T14:34:09.268Z,17.77
2023-05-11T14:36:37.655Z,19.37
2023-05-11T14:39:05.668Z,20.30
2023-05-11T14:41:33.382Z,18.63
2023-05-11T14:44:01.259Z,19.10
2023-05-11T14:46:29.171Z,19.27
2023-05-11T14:48:58.221Z,21.90
2023-05-11T14:51:25.915Z,18.37
2023-05-11T14:53:53.631Z,18.37
2023-05-11T14:56:22.178Z,20.93
2023-05-11T14:58:49.964Z,19.70
2023-05-11T15:01:17.735Z,19.37
2023-05-11T15:03:45.614Z,21.00
2023-05-11T15:06:20.866Z,17.63
2023-05-11T15:08:48.637Z,16.33
2023-05-11T15:11:16.477Z,15.20
2023-05-11T15:13:44.283Z,15.77
2023-05-11T15:16:12.036Z,16.50
2023-05-11T15:18:42.756Z,16.30
2023-05-11T15:21:11.585Z,15.50
2023-05-11T15:23:40.771Z,7.90
2023-05-11T15:26:09.914Z,9.50
2023-05-11T15:28:37.752Z,17.20
2023-05-11T15:31:05.499Z,9.03
2023-05-11T15:33:33.396Z,8.50
2023-05-11T15:36:01.192Z,8.27
2023-05-11T15:38:28.978Z,8.37
2023-05-11T15:40:58.192Z,10.07
2023-05-11T15:43:26.031Z,9.10
2023-05-11T15:45:55.123Z,7.47
2023-05-11T15:48:22.816Z,9.60
2023-05-11T15:50:50.570Z,9.07
2023-05-11T15:53:18.264Z,8.30
2023-05-11T15:55:46.273Z,7.57
2023-05-11T15:58:15.317Z,8.97
2023-05-11T16:00:43.280Z,8.20
2023-05-11T16:03:11.241Z,8.27
2023-05-11T16:05:39.246Z,9.37
2023-05-11T16:08:07.216Z,10.07
2023-05-11T16:10:34.956Z,9.13
2023-05-11T16:13:02.715Z,8.33
2023-05-11T16:15:32.959Z,9.20
2023-05-11T16:18:03.063Z,9.67
2023-05-11T16:20:32.568Z,7.73
2023-05-11T16:23:00.329Z,10.47
2023-05-11T16:25:28.099Z,10.30
2023-05-11T16:27:55.797Z,9.47
2023-05-11T16:30:25.292Z,8.00
2023-05-11T16:32:55.038Z,11.73
2023-05-11T16:35:22.826Z,9.67
2023-05-11T16:37:50.649Z,10.57
2023-05-11T16:40:20.765Z,8.30
2023-05-11T16:42:49.061Z,11.30
2023-05-11T16:45:17.142Z,9.63
2023-05-11T16:47:46.064Z,9.80
2023-05-11T16:50:16.118Z,9.80
2023-05-11T16:52:45.061Z,7.50
2023-05-11T16:55:12.852Z,8.17
2023-05-11T16:57:40.656Z,9.87
2023-05-11T17:00:10.152Z,8.10
2023-05-11T17:02:38.060Z,9.00
2023-05-11T17:05:06.747Z,12.20
2023-05-11T17:07:35.859Z,10.67
2023-05-11T17:10:03.579Z,10.37
2023-05-11T17:12:31.846Z,12.87
2023-05-11T17:15:00.555Z,10.63
2023-05-11T17:17:29.143Z,12.07
2023-05-11T17:19:56.892Z,14.53
2023-05-11T17:22:25.817Z,13.97
2023-05-11T17:24:54.938Z,10.87
2023-05-11T17:27:22.885Z,10.20
2023-05-11T17:29:50.662Z,10.50
2023-05-11T17:32:18.588Z,12.90
2023-05-11T17:34:46.506Z,9.70
2023-05-11T17:37:30.683Z,10.40
2023-05-11T17:40:01.305Z,15.13
2023-05-11T17:42:29.325Z,13.35
2023-05-11T17:44:57.053Z,15.60
2023-05-11T17:47:24.850Z,12.67
2023-05-11T17:49:55.747Z,14.50
2023-05-11T17:52:24.723Z,12.97
2023-05-11T17:54:52.868Z,14.40
2023-05-11T17:57:23.625Z,13.67
2023-05-11T17:59:51.335Z,10.13
2023-05-11T18:02:19.242Z,12.40
2023-05-11T18:04:47.059Z,12.20
2023-05-11T18:07:14.801Z,12.80
2023-05-11T18:09:42.526Z,11.17
2023-05-11T18:12:11.685Z,10.07
2023-05-11T18:14:41.169Z,10.10
2023-05-11T18:17:08.917Z,11.20
2023-05-11T18:19:36.645Z,10.20
2023-05-11T18:22:04.389Z,11.17
2023-05-11T18:24:32.129Z,10.13
2023-05-11T18:27:00.187Z,10.77
2023-05-11T18:29:27.919Z,10.30
2023-05-11T18:31:57.087Z,10.70
2023-05-11T18:34:24.880Z,10.30
2023-05-11T18:36:52.686Z,11.03
2023-05-11T18:39:20.422Z,10.50
2023-05-11T18:41:48.126Z,10.77
2023-05-11T18:44:16.326Z,11.13
2023-05-11T18:46:44.040Z,11.77
2023-05-11T18:49:13.117Z,10.90
2023-05-11T18:51:40.905Z,11.53
2023-05-11T18:54:08.632Z,11.47
2023-05-11T18:56:36.463Z,10.77
2023-05-11T18:59:04.247Z,11.57
2023-05-11T19:01:46.453Z,13.50
2023-05-11T19:04:19.357Z,13.27
2023-05-11T19:06:47.237Z,11.67
2023-05-11T19:09:14.991Z,12.53
2023-05-11T19:11:43.037Z,15.20
2023-05-11T19:14:14.250Z,11.27
2023-05-11T19:16:42.029Z,12.20
2023-05-11T19:19:11.193Z,11.73
2023-05-11T19:21:42.379Z,12.67
2023-05-11T19:24:11.060Z,14.20
2023-05-11T19:26:39.247Z,11.27
2023-05-11T19:29:09.075Z,12.17
2023-05-11T19:31:36.813Z,10.73
2023-05-11T19:34:04.640Z,11.67
2023-05-11T19:36:33.270Z,15.33
2023-05-11T19:39:02.520Z,13.17
2023-05-11T19:41:30.274Z,11.57
2023-05-11T19:43:58.016Z,13.27
2023-05-11T19:46:26.010Z,11.20
2023-05-11T19:48:53.844Z,12.67
2023-05-11T19:51:22.088Z,11.43
2023-05-11T19:53:50.172Z,12.80
2023-05-11T19:56:19.206Z,15.63
2023-05-11T19:58:46.987Z,11.90
2023-05-11T20:01:15.128Z,13.90
2023-05-11T20:03:43.101Z,14.90
2023-05-11T20:06:10.877Z,13.30
2023-05-11T20:08:38.634Z,14.43
2023-05-11T20:11:06.773Z,13.50
2023-05-11T20:13:36.044Z,12.87
2023-05-11T20:16:04.352Z,14.07
2023-05-11T20:18:32.238Z,13.20
2023-05-11T20:20:59.973Z,14.37
2023-05-11T20:23:28.194Z,13.43
2023-05-11T20:25:55.930Z,12.40
2023-05-11T20:28:27.043Z,11.70
2023-05-11T20:30:56.924Z,12.00
2023-05-11T20:35:55.779Z,11.73
2023-05-11T20:38:23.492Z,14.03
2023-05-11T20:40:51.240Z,14.90
2023-05-11T20:43:18.931Z,12.03
2023-05-11T20:45:46.782Z,12.30
2023-05-11T20:50:50.493Z,11.43
2023-05-11T20:53:19.086Z,22.77
2023-05-11T20:55:46.883Z,10.37
2023-05-11T20:58:14.628Z,22.27
2023-05-11T21:00:42.318Z,20.80
2023-05-11T21:03:10.305Z,13.27
2023-05-11T21:05:39.535Z,35.63
2023-05-11T21:08:07.257Z,27.57
2023-05-11T21:10:35.081Z,11.00
2023-05-11T21:13:03.759Z,47.97
2023-05-11T21:15:31.481Z,21.33
2023-05-11T21:17:59.606Z,10.03
2023-05-11T21:20:27.462Z,16.70
2023-05-11T21:22:56.647Z,18.00
2023-05-11T21:25:24.344Z,31.00
2023-05-11T21:27:52.311Z,20.60
2023-05-11T21:30:20.955Z,16.63
2023-05-11T21:32:50.460Z,19.90
2023-05-11T21:35:18.835Z,17.33
2023-05-11T21:37:49.638Z,16.43
2023-05-11T21:40:19.454Z,15.63
2023-05-11T21:42:47.617Z,12.30
2023-05-11T21:45:15.720Z,14.00
2023-05-11T21:47:43.594Z,10.93
2023-05-11T21:50:12.685Z,11.53
2023-05-11T21:52:40.763Z,11.17
2023-05-11T21:55:09.388Z,12.10
2023-05-11T21:57:39.044Z,11.37
2023-05-11T22:00:09.449Z,10.50
2023-05-11T22:02:38.457Z,9.60
2023-05-11T22:05:07.367Z,8.87
2023-05-11T22:07:35.157Z,9.10
2023-05-11T22:10:03.957Z,9.70
2023-05-11T22:12:32.033Z,9.70
2023-05-11T22:15:01.314Z,8.77
2023-05-11T22:17:29.190Z,9.10
2023-05-11T22:19:56.924Z,9.90
2023-05-11T22:22:24.660Z,8.87
2023-05-11T22:24:53.290Z,10.20
2023-05-11T22:27:21.112Z,10.53
2023-05-11T22:29:49.144Z,10.87
2023-05-11T22:32:18.493Z,9.90
2023-05-11T22:34:46.641Z,9.40
2023-05-11T22:37:14.477Z,9.50
2023-05-11T22:39:42.176Z,15.40
2023-05-11T22:42:10.554Z,9.03
2023-05-11T22:44:38.390Z,9.43
2023-05-11T22:47:06.950Z,10.30
2023-05-11T22:49:36.185Z,10.53
2023-05-11T22:52:04.463Z,12.30
2023-05-11T22:54:32.414Z,8.43
2023-05-11T22:57:54.513Z,10.40
2023-05-11T23:00:22.932Z,9.33
2023-05-11T23:02:50.815Z,12.53
2023-05-11T23:05:20.063Z,10.87
2023-05-11T23:07:47.925Z,10.60
2023-05-11T23:10:15.780Z,11.20
2023-05-11T23:12:44.165Z,12.60
2023-05-11T23:15:12.268Z,9.43
2023-05-11T23:17:40.101Z,9.43
2023-05-11T23:20:09.145Z,10.10
2023-05-11T23:22:38.185Z,11.67
2023-05-11T23:25:07.068Z,11.20
2023-05-11T23:27:35.440Z,10.50
2023-05-11T23:30:03.932Z,13.80
2023-05-11T23:32:31.845Z,12.53
2023-05-11T23:35:00.272Z,9.87
2023-05-11T23:37:28.422Z,10.87
2023-05-11T23:39:58.154Z,10.10
2023-05-11T23:42:26.220Z,11.73
2023-05-11T23:44:54.522Z,9.77
2023-05-11T23:47:23.712Z,10.37
2023-05-11T23:49:52.403Z,11.47
2023-05-11T23:52:20.613Z,10.80
2023-05-11T23:54:49.579Z,11.40
2023-05-11T23:57:19.437Z,14.13
2023-05-11T23:59:47.625Z,10.15
